createdAt,value
2023-04-25T00:02:29.257Z,76.51
2023-04-25T00:05:40.003Z,75.88
2023-04-25T00:08:48.654Z,75.63
2023-04-25T00:11:56.823Z,75.11
2023-04-25T00:15:05.532Z,74.98
2023-04-25T00:18:13.869Z,75.44
2023-04-25T00:21:25.352Z,75.62
2023-04-25T00:24:33.496Z,74.30
2023-04-25T00:27:42.766Z,74.74
2023-04-25T00:30:51.248Z,75.47
2023-04-25T00:33:59.360Z,74.95
2023-04-25T00:37:08.839Z,74.29
2023-04-25T00:40:17.265Z,74.43
2023-04-25T00:43:28.071Z,73.70
2023-04-25T00:46:37.759Z,74.73
2023-04-25T00:49:46.130Z,74.14
2023-04-25T00:52:56.607Z,74.04
2023-04-25T00:56:05.302Z,73.90
2023-04-25T00:59:13.911Z,72.90
2023-04-25T01:02:22.870Z,73.73
2023-04-25T01:05:31.170Z,72.75
2023-04-25T01:08:41.546Z,73.41
2023-04-25T01:11:50.445Z,73.21
2023-04-25T01:14:58.590Z,74.58
2023-04-25T01:18:08.174Z,74.03
2023-04-25T01:21:17.637Z,73.95
2023-04-25T01:24:26.982Z,73.76
2023-04-25T01:27:35.518Z,73.80
2023-04-25T01:30:44.910Z,74.13
2023-04-25T01:33:54.599Z,74.69
2023-04-25T01:37:04.262Z,74.50
2023-04-25T01:40:13.526Z,73.65
2023-04-25T01:43:22.329Z,73.96
2023-04-25T01:46:30.940Z,73.89
2023-04-25T01:49:39.395Z,73.23
2023-04-25T01:52:49.463Z,74.27
2023-04-25T01:55:58.350Z,74.33
2023-04-25T01:59:09.063Z,75.33
2023-04-25T02:02:37.021Z,74.83
2023-04-25T02:05:46.594Z,75.36
2023-04-25T02:08:57.029Z,75.96
2023-04-25T02:12:05.942Z,75.85
2023-04-25T02:15:35.147Z,76.75
2023-04-25T02:18:55.678Z,76.73
2023-04-25T02:22:03.976Z,76.54
2023-04-25T02:25:14.463Z,77.16
2023-04-25T02:28:22.769Z,77.66
2023-04-25T02:31:30.877Z,76.65
2023-04-25T02:34:40.502Z,77.16
2023-04-25T02:37:48.621Z,76.32
2023-04-25T02:40:58.287Z,76.41
2023-04-25T02:44:07.973Z,75.30
2023-04-25T02:47:16.704Z,74.23
2023-04-25T02:50:25.351Z,74.65
2023-04-25T02:53:33.834Z,74.76
2023-04-25T02:56:43.351Z,74.10
2023-04-25T02:59:56.475Z,73.77
2023-04-25T03:03:05.026Z,73.17
2023-04-25T03:06:13.214Z,73.59
2023-04-25T03:09:21.801Z,72.55
2023-04-25T03:12:31.745Z,73.39
2023-04-25T03:15:41.082Z,72.58
2023-04-25T03:18:50.621Z,72.48
2023-04-25T03:21:59.244Z,72.31
2023-04-25T03:25:09.402Z,72.00
2023-04-25T03:28:19.023Z,70.81
2023-04-25T03:31:27.662Z,71.71
2023-04-25T03:34:35.878Z,73.16
2023-04-25T03:37:46.479Z,75.33
2023-04-25T03:40:59.828Z,75.70
2023-04-25T03:44:19.415Z,74.59
2023-04-25T03:47:28.553Z,78.62
2023-04-25T03:50:37.424Z,79.84
2023-04-25T03:53:46.617Z,79.65
2023-04-25T03:57:13.103Z,79.97
2023-04-25T04:00:23.357Z,80.34
2023-04-25T04:03:34.211Z,80.70
2023-04-25T04:06:43.286Z,81.36
2023-04-25T04:09:57.346Z,80.82
2023-04-25T04:13:10.470Z,80.60
2023-04-25T04:16:20.259Z,80.32
2023-04-25T04:19:29.665Z,81.11
2023-04-25T04:22:46.818Z,81.48
2023-04-25T04:25:59.336Z,80.69
2023-04-25T04:29:22.595Z,81.48
2023-04-25T04:32:44.663Z,80.23
2023-04-25T04:35:54.562Z,80.73
2023-04-25T04:39:07.522Z,80.88
2023-04-25T04:42:25.172Z,80.68
2023-04-25T04:46:04.496Z,80.04
2023-04-25T04:49:19.706Z,80.01
2023-04-25T04:52:46.296Z,79.89
2023-04-25T04:56:30.347Z,80.42
2023-04-25T04:59:56.481Z,80.80
2023-04-25T05:03:28.279Z,80.62
2023-04-25T05:06:56.410Z,79.41
2023-04-25T05:10:22.291Z,79.36
2023-04-25T05:13:54.848Z,78.99
2023-04-25T05:17:21.792Z,78.96
2023-04-25T05:20:58.976Z,77.79
2023-04-25T05:24:28.683Z,75.78
2023-04-25T05:27:39.820Z,75.19
2023-04-25T05:31:05.769Z,75.71
2023-04-25T05:34:25.476Z,75.50
2023-04-25T05:37:43.709Z,73.62
2023-04-25T05:40:56.665Z,73.65
2023-04-25T05:44:26.561Z,73.49
2023-04-25T05:48:01.619Z,71.91
2023-04-25T05:51:39.305Z,72.03
2023-04-25T05:55:16.681Z,72.86
2023-04-25T05:58:26.499Z,72.08
2023-04-25T06:01:38.854Z,71.99
2023-04-25T06:04:47.241Z,71.99
2023-04-25T06:07:55.726Z,69.75
2023-04-25T06:11:04.101Z,64.84
2023-04-25T06:14:13.742Z,65.60
2023-04-25T06:17:27.807Z,66.35
2023-04-25T06:20:36.370Z,63.22
2023-04-25T06:23:44.498Z,56.80
2023-04-25T06:26:57.690Z,57.83
2023-04-25T06:30:09.659Z,59.39
2023-04-25T06:33:18.298Z,65.56
2023-04-25T06:36:29.173Z,70.59
2023-04-25T06:39:44.227Z,71.19
2023-04-25T06:42:53.042Z,70.12
2023-04-25T06:46:21.469Z,70.61
2023-04-25T06:49:31.497Z,71.40
2023-04-25T06:52:40.078Z,71.43
2023-04-25T06:55:48.621Z,70.11
2023-04-25T06:59:02.740Z,68.49
2023-04-25T07:02:15.500Z,67.51
2023-04-25T07:05:25.650Z,68.53
2023-04-25T07:08:34.460Z,69.13
2023-04-25T07:11:44.328Z,69.11
2023-04-25T07:14:52.831Z,70.58
2023-04-25T07:18:02.563Z,70.38
2023-04-25T07:21:11.318Z,70.44
2023-04-25T07:24:20.407Z,70.86
2023-04-25T07:27:30.507Z,70.70
2023-04-25T07:30:45.806Z,68.73
2023-04-25T07:33:55.707Z,68.31
2023-04-25T07:37:04.451Z,68.33
2023-04-25T07:40:21.239Z,67.10
2023-04-25T07:43:34.006Z,65.04
2023-04-25T07:46:42.872Z,64.91
2023-04-25T07:49:53.168Z,65.50
2023-04-25T07:53:01.350Z,65.56
2023-04-25T07:56:15.345Z,61.06
2023-04-25T07:59:28.584Z,60.60
2023-04-25T08:02:39.608Z,60.44
2023-04-25T08:05:53.993Z,58.20
2023-04-25T08:09:07.538Z,57.51
2023-04-25T08:12:21.089Z,59.19
2023-04-25T08:15:31.836Z,60.58
2023-04-25T08:18:40.926Z,61.58
2023-04-25T08:21:52.879Z,56.43
2023-04-25T08:25:08.610Z,59.27
2023-04-25T08:28:17.234Z,58.86
2023-04-25T08:31:27.543Z,55.71
2023-04-25T08:34:43.494Z,52.81
2023-04-25T08:37:53.083Z,54.95
2023-04-25T08:41:02.958Z,55.02
2023-04-25T08:44:13.903Z,51.46
2023-04-25T08:47:25.175Z,48.76
2023-04-25T08:50:39.405Z,49.27
2023-04-25T08:54:30.960Z,53.48
2023-04-25T08:57:23.226Z,55.02
2023-04-25T09:00:32.936Z,54.60
2023-04-25T09:03:44.586Z,55.38
2023-04-25T09:06:54.348Z,56.70
2023-04-25T09:10:04.889Z,55.93
2023-04-25T09:13:27.223Z,54.79
2023-04-25T09:17:05.957Z,52.96
2023-04-25T09:20:27.310Z,51.88
2023-04-25T09:23:43.161Z,49.49
2023-04-25T09:26:53.047Z,49.66
2023-04-25T09:30:02.324Z,52.52
2023-04-25T09:33:29.876Z,56.11
2023-04-25T09:36:43.073Z,55.93
2023-04-25T09:40:16.543Z,57.04
2023-04-25T09:43:39.872Z,52.83
2023-04-25T09:46:54.686Z,51.97
2023-04-25T09:50:20.107Z,53.40
2023-04-25T09:53:33.974Z,60.38
2023-04-25T09:56:55.667Z,62.65
2023-04-25T10:00:10.336Z,61.71
2023-04-25T10:03:27.905Z,62.63
2023-04-25T10:06:55.238Z,60.16
2023-04-25T10:10:06.986Z,60.41
2023-04-25T10:13:16.527Z,59.72
2023-04-25T10:16:28.488Z,58.19
2023-04-25T10:19:37.051Z,54.14
2023-04-25T10:22:49.867Z,55.73
2023-04-25T10:25:59.509Z,49.29
2023-04-25T10:29:07.962Z,51.40
2023-04-25T10:32:17.475Z,49.83
2023-04-25T10:35:31.077Z,48.12
2023-04-25T10:38:40.185Z,48.93
2023-04-25T10:41:50.357Z,48.90
2023-04-25T10:45:08.049Z,48.13
2023-04-25T10:48:29.206Z,48.24
2023-04-25T10:51:51.376Z,50.44
2023-04-25T10:55:07.033Z,46.17
2023-04-25T10:58:16.234Z,48.25
2023-04-25T11:01:28.207Z,46.56
2023-04-25T11:04:39.917Z,48.64
2023-04-25T11:08:03.925Z,47.49
2023-04-25T11:11:16.392Z,51.98
2023-04-25T11:14:25.183Z,56.90
2023-04-25T11:17:34.231Z,55.73
2023-04-25T11:20:46.410Z,58.54
2023-04-25T11:23:56.852Z,58.63
2023-04-25T11:27:06.800Z,60.45
2023-04-25T11:30:17.615Z,65.77
2023-04-25T11:33:28.083Z,67.23
2023-04-25T11:36:41.064Z,68.44
2023-04-25T11:39:50.035Z,71.68
2023-04-25T11:43:01.996Z,73.88
2023-04-25T11:46:10.207Z,74.85
2023-04-25T11:49:19.565Z,76.16
2023-04-25T11:52:41.492Z,77.61
2023-04-25T11:55:51.362Z,77.09
2023-04-25T11:59:02.904Z,77.47
2023-04-25T12:02:12.589Z,77.05
2023-04-25T12:05:32.001Z,75.86
2023-04-25T12:09:02.444Z,76.46
2023-04-25T12:12:12.377Z,76.57
2023-04-25T12:15:26.121Z,76.07
2023-04-25T12:18:38.053Z,77.10
2023-04-25T12:21:57.105Z,75.44
2023-04-25T12:25:08.993Z,74.89
2023-04-25T12:28:20.630Z,73.22
2023-04-25T12:31:31.139Z,73.17
2023-04-25T12:34:39.328Z,72.71
2023-04-25T12:37:48.103Z,71.69
2023-04-25T12:40:58.080Z,70.46
2023-04-25T12:44:06.385Z,70.10
2023-04-25T12:47:14.576Z,68.28
2023-04-25T12:50:22.655Z,68.31
2023-04-25T12:53:32.271Z,66.81
2023-04-25T12:56:43.477Z,68.44
2023-04-25T12:59:52.062Z,67.22
2023-04-25T13:03:00.392Z,65.24
2023-04-25T13:06:09.109Z,62.81
2023-04-25T13:09:17.328Z,63.98
2023-04-25T13:12:26.985Z,65.41
2023-04-25T13:15:37.515Z,69.06
2023-04-25T13:18:45.650Z,66.90
2023-04-25T13:21:54.745Z,69.55
2023-04-25T13:25:03.025Z,69.45
2023-04-25T13:28:12.548Z,72.25
2023-04-25T13:31:20.699Z,71.43
2023-04-25T13:34:28.865Z,71.70
2023-04-25T13:37:37.232Z,71.52
2023-04-25T13:40:45.408Z,73.29
2023-04-25T13:43:55.700Z,71.40
2023-04-25T13:47:04.103Z,73.64
2023-04-25T13:50:12.690Z,72.24
2023-04-25T13:53:22.283Z,74.00
2023-04-25T13:56:30.791Z,75.79
2023-04-25T13:59:41.559Z,76.20
2023-04-25T14:02:50.884Z,74.71
2023-04-25T14:05:59.289Z,75.77
2023-04-25T14:09:08.371Z,74.71
2023-04-25T14:12:17.570Z,75.34
2023-04-25T14:15:27.055Z,78.53
2023-04-25T14:18:35.116Z,77.59
2023-04-25T14:21:43.633Z,77.30
2023-04-25T14:24:51.958Z,78.16
2023-04-25T14:28:00.075Z,77.42
2023-04-25T14:31:09.614Z,79.12
2023-04-25T14:34:18.005Z,78.50
2023-04-25T14:37:26.169Z,76.85
2023-04-25T14:40:34.500Z,76.47
2023-04-25T14:43:42.883Z,75.23
2023-04-25T14:46:52.969Z,75.50
2023-04-25T14:50:02.539Z,77.15
2023-04-25T14:53:10.915Z,77.66
2023-04-25T14:56:19.587Z,76.36
2023-04-25T14:59:28.085Z,75.99
2023-04-25T15:02:38.219Z,73.38
2023-04-25T15:05:46.568Z,72.54
2023-04-25T15:08:55.021Z,71.29
2023-04-25T15:12:04.163Z,72.28
2023-04-25T15:15:17.520Z,71.38
2023-04-25T15:18:36.061Z,73.69
2023-04-25T15:21:44.472Z,74.39
2023-04-25T15:24:52.784Z,75.03
2023-04-25T15:28:00.962Z,74.24
2023-04-25T15:31:10.038Z,71.85
2023-04-25T15:34:19.808Z,72.28
2023-04-25T15:37:28.220Z,72.63
2023-04-25T15:40:37.024Z,70.84
2023-04-25T15:43:45.261Z,71.34
2023-04-25T15:46:55.167Z,70.92
2023-04-25T15:50:07.304Z,73.08
2023-04-25T15:53:15.480Z,71.47
2023-04-25T15:56:24.113Z,73.04
2023-04-25T15:59:32.534Z,74.13
2023-04-25T16:02:41.869Z,73.70
2023-04-25T16:05:52.553Z,74.52
2023-04-25T16:09:00.767Z,74.31
2023-04-25T16:12:12.418Z,74.91
2023-04-25T16:15:20.798Z,74.77
2023-04-25T16:18:30.596Z,73.50
2023-04-25T16:21:40.594Z,72.07
2023-04-25T16:24:49.684Z,72.27
2023-04-25T16:27:57.828Z,71.95
2023-04-25T16:31:06.873Z,73.47
2023-04-25T16:34:16.274Z,75.36
2023-04-25T16:37:27.081Z,75.62
2023-04-25T16:40:35.302Z,76.04
2023-04-25T16:43:43.953Z,76.59
2023-04-25T16:46:52.413Z,76.08
2023-04-25T16:50:02.009Z,77.17
2023-04-25T16:53:11.604Z,77.28
2023-04-25T16:56:20.002Z,76.75
2023-04-25T16:59:28.119Z,77.11
2023-04-25T17:02:36.519Z,77.30
2023-04-25T17:05:45.272Z,76.86
2023-04-25T17:08:54.856Z,74.64
2023-04-25T17:12:04.917Z,75.83
2023-04-25T17:15:13.666Z,75.25
2023-04-25T17:18:23.355Z,75.61
2023-04-25T17:21:33.029Z,76.00
2023-04-25T17:24:42.913Z,75.83
2023-04-25T17:27:51.023Z,76.46
2023-04-25T17:30:59.987Z,75.72
2023-04-25T17:34:09.252Z,76.41
2023-04-25T17:37:18.589Z,75.91
2023-04-25T17:40:28.703Z,76.45
2023-04-25T17:43:37.273Z,77.18
2023-04-25T17:46:45.836Z,77.43
2023-04-25T17:49:54.833Z,77.88
2023-04-25T17:53:04.260Z,76.62
2023-04-25T17:56:26.002Z,76.82
2023-04-25T17:59:36.416Z,77.15
2023-04-25T18:02:45.494Z,78.01
2023-04-25T18:05:53.992Z,77.07
2023-04-25T18:09:03.141Z,77.59
2023-04-25T18:12:14.839Z,77.84
2023-04-25T18:15:23.684Z,78.33
2023-04-25T18:18:34.565Z,77.83
2023-04-25T18:21:43.797Z,77.43
2023-04-25T18:24:52.085Z,77.72
2023-04-25T18:28:01.901Z,77.97
2023-04-25T18:31:11.575Z,77.68
2023-04-25T18:34:20.797Z,77.30
2023-04-25T18:37:30.020Z,78.19
2023-04-25T18:40:47.103Z,78.50
2023-04-25T18:44:08.124Z,78.13
2023-04-25T18:47:16.334Z,78.43
2023-04-25T18:50:26.385Z,76.97
2023-04-25T18:53:35.050Z,77.75
2023-04-25T18:56:43.137Z,80.26
2023-04-25T18:59:52.528Z,79.69
2023-04-25T19:03:04.574Z,79.09
2023-04-25T19:06:12.896Z,78.60
2023-04-25T19:09:21.124Z,79.15
2023-04-25T19:12:29.290Z,80.38
2023-04-25T19:15:39.495Z,79.79
2023-04-25T19:18:48.625Z,80.60
2023-04-25T19:21:56.955Z,82.11
2023-04-25T19:25:10.299Z,83.15
2023-04-25T19:28:19.439Z,84.16
2023-04-25T19:31:28.993Z,83.52
2023-04-25T19:34:37.241Z,84.23
2023-04-25T19:37:47.023Z,84.38
2023-04-25T19:40:55.337Z,84.59
2023-04-25T19:44:06.812Z,84.63
2023-04-25T19:47:16.478Z,84.33
2023-04-25T19:50:25.487Z,83.88
2023-04-25T19:53:33.601Z,84.43
2023-04-25T19:56:42.267Z,83.38
2023-04-25T19:59:50.998Z,84.17
2023-04-25T20:03:01.190Z,83.40
2023-04-25T20:06:09.787Z,84.24
2023-04-25T20:09:18.464Z,85.03
2023-04-25T20:12:27.105Z,84.25
2023-04-25T20:15:35.641Z,85.28
2023-04-25T20:18:45.150Z,84.40
2023-04-25T20:21:53.395Z,84.12
2023-04-25T20:25:01.511Z,84.58
2023-04-25T20:28:09.883Z,83.73
2023-04-25T20:31:18.482Z,84.20
2023-04-25T20:34:30.123Z,84.77
2023-04-25T20:37:38.793Z,84.74
2023-04-25T20:40:47.154Z,83.88
2023-04-25T20:43:55.819Z,84.16
2023-04-25T20:47:04.692Z,85.88
2023-04-25T20:50:14.434Z,86.62
2023-04-25T20:53:23.166Z,87.11
2023-04-25T20:56:32.803Z,86.60
2023-04-25T20:59:40.960Z,85.37
2023-04-25T21:02:49.325Z,85.02
2023-04-25T21:05:58.893Z,85.10
2023-04-25T21:09:08.913Z,85.47
2023-04-25T21:12:17.008Z,84.59
2023-04-25T21:15:25.770Z,84.39
2023-04-25T21:18:34.851Z,84.31
2023-04-25T21:21:44.417Z,85.08
2023-04-25T21:24:54.172Z,84.66
2023-04-25T21:28:02.907Z,85.20
2023-04-25T21:31:11.292Z,84.72
2023-04-25T21:34:19.619Z,84.13
2023-04-25T21:37:29.388Z,84.72
2023-04-25T21:40:37.625Z,84.48
2023-04-25T21:43:45.818Z,84.70
2023-04-25T21:46:54.018Z,85.64
2023-04-25T21:50:02.346Z,85.69
2023-04-25T21:53:12.133Z,84.58
2023-04-25T21:56:21.017Z,84.48
2023-04-25T21:59:29.549Z,84.52
2023-04-25T22:02:37.746Z,84.85
2023-04-25T22:05:46.718Z,84.65
2023-04-25T22:08:56.385Z,84.97
2023-04-25T22:12:05.044Z,85.85
2023-04-25T22:15:13.904Z,86.11
2023-04-25T22:18:22.264Z,86.23
2023-04-25T22:21:30.808Z,86.70
2023-04-25T22:24:42.401Z,87.13
2023-04-25T22:27:51.561Z,87.30
2023-04-25T22:30:59.866Z,87.73
2023-04-25T22:34:08.398Z,86.90
2023-04-25T22:37:16.673Z,86.12
2023-04-25T22:40:26.461Z,86.54
2023-04-25T22:43:34.534Z,85.28
2023-04-25T22:46:42.752Z,85.50
2023-04-25T22:49:51.642Z,85.35
2023-04-25T22:53:00.497Z,85.49
2023-04-25T22:56:11.291Z,84.90
2023-04-25T22:59:20.740Z,84.49
2023-04-25T23:02:29.089Z,84.96
2023-04-25T23:05:38.305Z,84.95
2023-04-25T23:08:46.642Z,85.57
2023-04-25T23:11:57.286Z,85.33
2023-04-25T23:15:06.386Z,85.58
2023-04-25T23:18:14.712Z,85.21
2023-04-25T23:21:23.218Z,85.67
2023-04-25T23:24:31.669Z,85.06
2023-04-25T23:27:41.732Z,85.49
2023-04-25T23:30:49.822Z,85.17
2023-04-25T23:33:58.138Z,84.67
2023-04-25T23:37:06.184Z,86.14
2023-04-25T23:40:14.296Z,85.50
2023-04-25T23:43:24.010Z,85.46
2023-04-25T23:46:32.458Z,85.62
2023-04-25T23:49:41.068Z,85.27
2023-04-25T23:52:49.392Z,85.41
2023-04-25T23:55:57.427Z,85.61
2023-04-25T23:59:06.904Z,85.59
